createdAt,value
2023-01-07T00:01:12.009Z,27
2023-01-07T00:03:12.153Z,39
2023-01-07T00:05:12.263Z,43
2023-01-07T00:07:12.401Z,39
2023-01-07T00:09:12.515Z,42
2023-01-07T00:11:12.590Z,51
2023-01-07T00:13:12.673Z,58
2023-01-07T00:15:12.799Z,66
2023-01-07T00:17:13.063Z,63
2023-01-07T00:19:12.990Z,62
2023-01-07T00:21:13.119Z,58
2023-01-07T00:23:13.207Z,58
2023-01-07T00:25:13.337Z,59
2023-01-07T00:27:13.451Z,64
2023-01-07T00:29:13.594Z,62
2023-01-07T00:31:13.737Z,73
2023-01-07T00:33:13.810Z,69
2023-01-07T00:35:13.938Z,67
2023-01-07T00:37:14.021Z,77
2023-01-07T00:39:14.149Z,66
2023-01-07T00:41:14.241Z,67
2023-01-07T00:43:14.341Z,61
2023-01-07T00:45:14.798Z,51
2023-01-07T00:47:14.586Z,48
2023-01-07T00:49:14.724Z,49
2023-01-07T00:51:14.848Z,46
2023-01-07T00:53:14.929Z,45
2023-01-07T00:55:15.035Z,43
2023-01-07T00:57:15.246Z,44
2023-01-07T00:59:15.352Z,42
2023-01-07T01:01:15.467Z,41
2023-01-07T01:03:15.447Z,39
2023-01-07T01:05:15.605Z,39
2023-01-07T01:07:15.719Z,40
2023-01-07T01:09:15.818Z,41
2023-01-07T01:11:15.963Z,40
2023-01-07T01:13:18.078Z,44
2023-01-07T01:15:16.144Z,40
2023-01-07T01:17:16.258Z,42
2023-01-07T01:19:16.369Z,53
2023-01-07T01:21:16.502Z,46
2023-01-07T01:23:16.612Z,39
2023-01-07T01:25:16.714Z,37
2023-01-07T01:27:16.837Z,39
2023-01-07T01:29:16.916Z,32
2023-01-07T01:31:17.085Z,33
2023-01-07T01:33:17.147Z,32
2023-01-07T01:35:17.271Z,35
2023-01-07T01:37:17.364Z,35
2023-01-07T01:39:17.431Z,36
2023-01-07T01:41:17.558Z,35
2023-01-07T01:43:17.667Z,37
2023-01-07T01:45:17.759Z,36
2023-01-07T01:47:17.879Z,40
2023-01-07T01:49:18.014Z,41
2023-01-07T01:51:18.167Z,38
2023-01-07T01:53:18.229Z,34
2023-01-07T01:55:18.315Z,28
2023-01-07T01:57:18.435Z,23
2023-01-07T01:59:18.538Z,22
2023-01-07T02:01:18.841Z,22
2023-01-07T02:03:18.772Z,21
2023-01-07T02:05:18.875Z,19
2023-01-07T02:07:19.088Z,19
2023-01-07T02:09:19.118Z,18
2023-01-07T02:11:19.279Z,18
2023-01-07T02:13:19.434Z,18
2023-01-07T02:15:19.496Z,19
2023-01-07T02:17:19.555Z,19
2023-01-07T02:19:19.673Z,20
2023-01-07T02:21:19.744Z,20
2023-01-07T02:23:19.816Z,25
2023-01-07T02:25:19.913Z,26
2023-01-07T02:27:21.111Z,25
2023-01-07T02:29:20.101Z,25
2023-01-07T02:31:20.324Z,25
2023-01-07T02:33:20.316Z,28
2023-01-07T02:35:20.441Z,28
2023-01-07T02:37:20.543Z,33
2023-01-07T02:39:20.645Z,32
2023-01-07T02:41:20.725Z,33
2023-01-07T02:43:20.867Z,31
2023-01-07T02:45:20.948Z,26
2023-01-07T02:47:21.059Z,25
2023-01-07T02:49:21.229Z,23
2023-01-07T02:51:21.258Z,21
2023-01-07T02:53:21.344Z,18
2023-01-07T02:55:21.447Z,18
2023-01-07T02:57:21.571Z,18
2023-01-07T02:59:21.665Z,23
2023-01-07T03:01:21.953Z,31
2023-01-07T03:03:21.999Z,23
2023-01-07T03:05:22.001Z,23
2023-01-07T03:07:22.103Z,23
2023-01-07T03:09:22.200Z,23
2023-01-07T03:11:22.470Z,23
2023-01-07T03:13:22.400Z,26
2023-01-07T03:15:22.523Z,26
2023-01-07T03:17:22.627Z,25
2023-01-07T03:19:22.750Z,25
2023-01-07T03:21:22.963Z,25
2023-01-07T03:23:23.010Z,26
2023-01-07T03:25:23.094Z,25
2023-01-07T03:27:23.185Z,21
2023-01-07T03:29:23.294Z,23
2023-01-07T03:31:23.504Z,25
2023-01-07T03:33:23.503Z,25
2023-01-07T03:35:23.632Z,29
2023-01-07T03:37:23.836Z,28
2023-01-07T03:39:23.864Z,28
2023-01-07T03:41:23.972Z,28
2023-01-07T03:43:24.105Z,26
2023-01-07T03:45:24.187Z,25
2023-01-07T03:47:24.300Z,21
2023-01-07T03:49:24.429Z,20
2023-01-07T03:51:24.675Z,18
2023-01-07T03:53:24.611Z,19
2023-01-07T03:55:24.751Z,19
2023-01-07T03:57:24.842Z,17
2023-01-07T03:59:24.953Z,17
2023-01-07T04:01:25.155Z,17
2023-01-07T04:03:25.168Z,18
2023-01-07T04:05:25.269Z,17
2023-01-07T04:07:25.406Z,17
2023-01-07T04:09:25.488Z,19
2023-01-07T04:11:25.608Z,20
2023-01-07T04:13:25.740Z,16
2023-01-07T04:15:25.858Z,15
2023-01-07T04:17:25.980Z,16
2023-01-07T04:19:26.070Z,16
2023-01-07T04:21:26.219Z,18
2023-01-07T04:23:26.307Z,18
2023-01-07T04:25:26.449Z,18
2023-01-07T04:27:26.516Z,16
2023-01-07T04:29:26.639Z,15
2023-01-07T04:31:26.752Z,13
2023-01-07T04:33:26.871Z,13
2023-01-07T04:35:26.988Z,13
2023-01-07T04:37:27.083Z,13
2023-01-07T04:39:27.212Z,13
2023-01-07T04:41:27.283Z,13
2023-01-07T04:43:27.408Z,17
2023-01-07T04:45:27.530Z,16
2023-01-07T04:47:27.635Z,15
2023-01-07T04:49:27.761Z,14
2023-01-07T04:51:27.839Z,14
2023-01-07T04:53:27.997Z,13
2023-01-07T04:55:28.088Z,13
2023-01-07T04:57:28.293Z,12
2023-01-07T04:59:28.293Z,13
2023-01-07T05:01:28.475Z,13
2023-01-07T05:03:28.493Z,14
2023-01-07T05:05:28.672Z,14
2023-01-07T05:07:28.706Z,14
2023-01-07T05:09:28.861Z,13
2023-01-07T05:11:28.979Z,14
2023-01-07T05:13:29.081Z,14
2023-01-07T05:15:29.189Z,15
2023-01-07T05:17:29.295Z,14
2023-01-07T05:19:29.405Z,13
2023-01-07T05:21:29.523Z,16
2023-01-07T05:23:29.668Z,15
2023-01-07T05:25:29.790Z,15
2023-01-07T05:29:29.980Z,14
2023-01-07T05:31:30.082Z,13
2023-01-07T05:33:30.205Z,14
2023-01-07T05:35:30.328Z,16
2023-01-07T05:37:30.394Z,17
2023-01-07T05:39:30.551Z,18
2023-01-07T05:41:30.647Z,33
2023-01-07T05:43:30.754Z,33
2023-01-07T05:45:30.852Z,28
2023-01-07T05:47:30.968Z,29
2023-01-07T05:49:31.125Z,28
2023-01-07T05:51:31.226Z,28
2023-01-07T05:53:31.288Z,26
2023-01-07T05:55:31.427Z,26
2023-01-07T05:57:31.507Z,25
2023-01-07T05:59:31.651Z,24
2023-01-07T06:01:31.900Z,24
2023-01-07T06:03:31.954Z,23
2023-01-07T06:05:31.980Z,22
2023-01-07T06:07:32.091Z,21
2023-01-07T06:09:32.192Z,21
2023-01-07T06:11:32.287Z,19
2023-01-07T06:13:32.387Z,20
2023-01-07T06:15:32.596Z,18
2023-01-07T06:19:32.765Z,17
2023-01-07T06:21:32.943Z,16
2023-01-07T06:23:32.972Z,34
2023-01-07T06:25:33.067Z,19
2023-01-07T06:27:33.186Z,20
2023-01-07T06:29:33.329Z,20
2023-01-07T06:31:33.474Z,20
2023-01-07T06:33:33.749Z,20
2023-01-07T06:35:33.671Z,20
2023-01-07T06:37:33.744Z,24
2023-01-07T06:39:33.857Z,32
2023-01-07T06:41:33.944Z,29
2023-01-07T06:43:34.072Z,27
2023-01-07T06:45:34.283Z,30
2023-01-07T06:47:34.358Z,26
2023-01-07T06:49:34.426Z,27
2023-01-07T06:51:34.558Z,39
2023-01-07T06:53:34.636Z,44
2023-01-07T06:55:34.759Z,46
2023-01-07T06:57:34.882Z,42
2023-01-07T06:59:34.980Z,42
2023-01-07T07:01:35.242Z,41
2023-01-07T07:03:35.231Z,42
2023-01-07T07:05:35.306Z,46
2023-01-07T07:07:35.579Z,51
2023-01-07T07:09:35.565Z,52
2023-01-07T07:11:35.665Z,62
2023-01-07T07:13:35.784Z,57
2023-01-07T07:15:35.922Z,60
2023-01-07T07:17:36.042Z,62
2023-01-07T07:19:36.154Z,98
2023-01-07T07:21:36.231Z,91
2023-01-07T07:23:36.361Z,76
2023-01-07T07:25:36.487Z,70
2023-01-07T07:27:36.787Z,60
2023-01-07T07:29:36.726Z,46
2023-01-07T07:31:36.853Z,51
2023-01-07T07:33:36.928Z,52
2023-01-07T07:35:37.020Z,51
2023-01-07T07:37:37.143Z,50
2023-01-07T07:39:37.384Z,45
2023-01-07T07:41:37.396Z,49
2023-01-07T07:43:37.466Z,100
2023-01-07T07:45:37.570Z,71
2023-01-07T07:47:37.692Z,61
2023-01-07T07:49:37.825Z,92
2023-01-07T07:51:37.934Z,99
2023-01-07T07:53:38.052Z,87
2023-01-07T07:55:38.217Z,73
2023-01-07T07:57:38.286Z,75
2023-01-07T07:59:38.379Z,76
2023-01-07T08:01:38.625Z,75
2023-01-07T08:03:38.659Z,73
2023-01-07T08:05:38.706Z,71
2023-01-07T08:07:38.798Z,70
2023-01-07T08:09:38.937Z,69
2023-01-07T08:11:38.992Z,70
2023-01-07T08:13:39.142Z,69
2023-01-07T08:15:39.295Z,66
2023-01-07T08:17:39.327Z,67
2023-01-07T08:19:39.440Z,63
2023-01-07T08:21:39.554Z,65
2023-01-07T08:23:39.674Z,64
2023-01-07T08:25:39.799Z,62
2023-01-07T08:27:39.881Z,62
2023-01-07T08:29:40.002Z,67
2023-01-07T08:31:40.176Z,66
2023-01-07T08:33:40.204Z,75
2023-01-07T08:35:40.315Z,63
2023-01-07T08:37:40.427Z,55
2023-01-07T08:39:40.530Z,49
2023-01-07T08:41:40.747Z,49
2023-01-07T08:43:40.753Z,43
2023-01-07T08:45:40.913Z,44
2023-01-07T08:47:40.987Z,45
2023-01-07T08:49:41.170Z,45
2023-01-07T08:51:41.212Z,62
2023-01-07T08:53:41.349Z,70
2023-01-07T08:55:41.460Z,73
2023-01-07T08:57:41.659Z,65
2023-01-07T08:59:41.695Z,55
2023-01-07T09:01:41.905Z,53
2023-01-07T09:03:41.909Z,51
2023-01-07T09:05:41.976Z,48
2023-01-07T09:07:42.124Z,46
2023-01-07T09:09:42.248Z,55
2023-01-07T09:11:42.321Z,47
2023-01-07T09:13:42.433Z,71
2023-01-07T09:15:42.555Z,49
2023-01-07T09:17:42.652Z,110
2023-01-07T09:19:42.763Z,59
2023-01-07T09:21:42.839Z,128
2023-01-07T09:23:42.963Z,74
2023-01-07T09:25:43.069Z,178
2023-01-07T09:27:43.198Z,161
2023-01-07T09:29:43.424Z,144
2023-01-07T09:31:43.691Z,236
2023-01-07T09:33:43.513Z,304
2023-01-07T09:35:43.645Z,201
2023-01-07T09:37:43.740Z,218
2023-01-07T09:39:43.846Z,247
2023-01-07T09:41:43.981Z,105
2023-01-07T09:44:00.891Z,132
2023-01-07T09:45:44.249Z,134
2023-01-07T09:47:44.263Z,94
2023-01-07T09:49:44.370Z,85
2023-01-07T09:51:44.475Z,72
2023-01-07T09:53:44.613Z,74
2023-01-07T09:56:11.848Z,60
2023-01-07T09:57:44.790Z,45
2023-01-07T09:59:44.908Z,37
2023-01-07T10:01:44.995Z,31
2023-01-07T10:03:45.184Z,34
2023-01-07T10:05:45.208Z,31
2023-01-07T10:07:45.349Z,31
2023-01-07T10:09:45.439Z,28
2023-01-07T10:11:45.560Z,27
2023-01-07T10:13:45.630Z,27
2023-01-07T10:15:45.753Z,31
2023-01-07T10:17:45.850Z,50
2023-01-07T10:19:45.966Z,48
2023-01-07T10:21:46.046Z,47
2023-01-07T10:23:46.116Z,48
2023-01-07T10:25:46.214Z,48
2023-01-07T10:27:46.350Z,47
2023-01-07T10:29:46.434Z,49
2023-01-07T10:31:46.680Z,49
2023-01-07T10:33:46.648Z,48
2023-01-07T10:35:46.711Z,47
2023-01-07T10:37:46.849Z,45
2023-01-07T10:39:46.932Z,47
2023-01-07T10:41:47.034Z,50
2023-01-07T10:43:47.124Z,46
2023-01-07T10:45:47.267Z,46
2023-01-07T10:47:47.332Z,43
2023-01-07T10:49:47.428Z,47
2023-01-07T10:51:47.556Z,40
2023-01-07T10:53:47.631Z,42
2023-01-07T10:55:47.708Z,42
2023-01-07T10:57:47.799Z,39
2023-01-07T10:59:47.891Z,43
2023-01-07T11:01:48.135Z,38
2023-01-07T11:03:48.129Z,36
2023-01-07T11:05:48.229Z,35
2023-01-07T11:07:48.341Z,35
2023-01-07T11:09:48.422Z,37
2023-01-07T11:11:48.523Z,36
2023-01-07T11:13:48.604Z,36
2023-01-07T11:15:48.660Z,35
2023-01-07T11:17:48.758Z,40
2023-01-07T11:19:48.943Z,43
2023-01-07T11:21:48.985Z,36
2023-01-07T11:23:49.067Z,38
2023-01-07T11:25:49.173Z,36
2023-01-07T11:27:49.270Z,37
2023-01-07T11:29:51.426Z,36
2023-01-07T11:31:49.577Z,36
2023-01-07T11:34:01.558Z,57
2023-01-07T11:35:49.683Z,78
2023-01-07T11:37:49.779Z,33
2023-01-07T11:39:49.871Z,33
2023-01-07T11:41:49.955Z,35
2023-01-07T11:43:50.058Z,35
2023-01-07T11:46:20.372Z,31
2023-01-07T11:47:50.260Z,29
2023-01-07T11:49:50.377Z,30
2023-01-07T11:51:50.537Z,31
2023-01-07T11:53:50.534Z,30
2023-01-07T11:55:50.724Z,30
2023-01-07T11:57:50.729Z,31
2023-01-07T11:59:50.845Z,29
2023-01-07T12:01:50.886Z,30
2023-01-07T12:03:51.053Z,26
2023-01-07T12:05:51.077Z,24
2023-01-07T12:07:51.190Z,26
2023-01-07T12:09:51.251Z,26
2023-01-07T12:11:51.357Z,24
2023-01-07T12:13:51.454Z,24
2023-01-07T12:15:51.556Z,25
2023-01-07T12:17:51.683Z,28
2023-01-07T12:19:51.745Z,27
2023-01-07T12:21:51.843Z,28
2023-01-07T12:23:51.957Z,27
2023-01-07T12:25:52.022Z,26
2023-01-07T12:27:52.089Z,25
2023-01-07T12:29:52.175Z,25
2023-01-07T12:31:52.254Z,38
2023-01-07T12:33:52.335Z,31
2023-01-07T12:35:52.431Z,29
2023-01-07T12:37:52.529Z,32
2023-01-07T12:39:54.383Z,30
2023-01-07T12:41:52.730Z,25
2023-01-07T12:43:54.009Z,29
2023-01-07T12:45:52.946Z,27
2023-01-07T12:47:52.975Z,28
2023-01-07T12:49:53.036Z,36
2023-01-07T12:51:53.128Z,71
2023-01-07T12:53:53.255Z,44
2023-01-07T12:55:53.309Z,74
2023-01-07T12:57:53.418Z,53
2023-01-07T12:59:53.521Z,31
2023-01-07T13:01:53.711Z,32
2023-01-07T13:03:53.671Z,27
2023-01-07T13:05:53.752Z,25
2023-01-07T13:07:53.837Z,27
2023-01-07T13:09:53.922Z,27
2023-01-07T13:11:54.000Z,39
2023-01-07T13:13:54.079Z,46
2023-01-07T13:15:54.238Z,49
2023-01-07T13:17:54.277Z,107
2023-01-07T13:19:54.657Z,46
2023-01-07T13:22:24.644Z,41
2023-01-07T13:24:54.790Z,58
2023-01-07T13:26:24.847Z,65
2023-01-07T13:28:24.964Z,56
2023-01-07T13:30:25.077Z,37
2023-01-07T13:32:25.156Z,39
2023-01-07T13:34:25.291Z,45
2023-01-07T13:36:25.390Z,47
2023-01-07T13:38:25.479Z,55
2023-01-07T13:40:25.625Z,56
2023-01-07T13:42:25.677Z,51
2023-01-07T13:44:25.798Z,49
2023-01-07T13:46:25.966Z,45
2023-01-07T13:48:26.010Z,47
2023-01-07T13:50:26.131Z,47
2023-01-07T13:52:26.255Z,43
2023-01-07T13:54:26.363Z,45
2023-01-07T13:56:26.451Z,45
2023-01-07T13:58:26.528Z,46
2023-01-07T14:00:26.634Z,46
2023-01-07T14:02:26.893Z,53
2023-01-07T14:04:26.831Z,56
2023-01-07T14:06:26.943Z,53
2023-01-07T14:08:27.012Z,59
2023-01-07T14:10:27.144Z,59
2023-01-07T14:12:27.254Z,62
2023-01-07T14:14:27.328Z,54
2023-01-07T14:16:27.437Z,51
2023-01-07T14:18:27.547Z,47
2023-01-07T14:20:27.619Z,43
2023-01-07T14:22:27.720Z,38
2023-01-07T14:24:27.857Z,41
2023-01-07T14:26:27.952Z,53
2023-01-07T14:28:28.082Z,50
2023-01-07T14:30:28.137Z,51
2023-01-07T14:32:28.258Z,50
2023-01-07T14:34:28.359Z,51
2023-01-07T14:36:28.461Z,51
2023-01-07T14:38:28.547Z,58
2023-01-07T14:40:28.682Z,67
2023-01-07T14:42:28.738Z,67
2023-01-07T14:44:28.818Z,62
2023-01-07T14:46:28.990Z,58
2023-01-07T14:48:29.053Z,56
2023-01-07T14:50:29.144Z,57
2023-01-07T14:52:29.245Z,56
2023-01-07T14:54:29.320Z,53
2023-01-07T14:56:29.395Z,51
2023-01-07T14:58:29.495Z,52
2023-01-07T15:00:29.631Z,54
2023-01-07T15:02:29.842Z,52
2023-01-07T15:04:31.917Z,50
2023-01-07T15:06:29.825Z,44
2023-01-07T15:08:29.946Z,52
2023-01-07T15:10:30.031Z,53
2023-01-07T15:12:30.146Z,53
2023-01-07T15:14:30.234Z,66
2023-01-07T15:16:30.450Z,67
2023-01-07T15:18:30.430Z,62
2023-01-07T15:20:30.596Z,64
2023-01-07T15:22:30.634Z,70
2023-01-07T15:24:30.724Z,68
2023-01-07T15:26:30.801Z,73
2023-01-07T15:28:30.890Z,64
2023-01-07T15:30:30.997Z,60
2023-01-07T15:32:31.110Z,81
2023-01-07T15:34:31.220Z,94
2023-01-07T15:36:31.310Z,101
2023-01-07T15:38:31.399Z,101
2023-01-07T15:40:31.485Z,113
2023-01-07T15:42:31.602Z,130
2023-01-07T15:44:31.686Z,94
2023-01-07T15:46:31.835Z,63
2023-01-07T15:48:31.913Z,63
2023-01-07T15:50:32.020Z,59
2023-01-07T15:52:32.108Z,59
2023-01-07T15:54:32.194Z,120
2023-01-07T15:56:32.307Z,61
2023-01-07T15:58:32.383Z,44
2023-01-07T16:00:32.504Z,23
2023-01-07T16:04:32.770Z,25
2023-01-07T16:06:32.855Z,26
2023-01-07T16:08:32.863Z,35
2023-01-07T16:10:32.951Z,41
2023-01-07T16:12:33.059Z,52
2023-01-07T16:14:33.152Z,47
2023-01-07T16:16:33.344Z,40
2023-01-07T16:18:33.371Z,38
2023-01-07T16:20:33.491Z,32
2023-01-07T16:22:33.572Z,38
2023-01-07T16:24:33.629Z,39
2023-01-07T16:26:33.758Z,34
2023-01-07T16:28:33.857Z,32
2023-01-07T16:30:33.924Z,25
2023-01-07T16:32:34.021Z,22
2023-01-07T16:34:34.112Z,21
2023-01-07T16:36:34.181Z,24
2023-01-07T16:38:34.281Z,28
2023-01-07T16:40:34.400Z,36
2023-01-07T16:42:34.512Z,31
2023-01-07T16:44:34.586Z,35
2023-01-07T16:46:34.736Z,35
2023-01-07T16:48:34.729Z,35
2023-01-07T16:50:34.846Z,46
2023-01-07T16:52:34.944Z,30
2023-01-07T16:54:35.038Z,47
2023-01-07T16:56:35.090Z,44
2023-01-07T16:58:35.174Z,40
2023-01-07T17:00:35.323Z,46
2023-01-07T17:02:35.428Z,43
2023-01-07T17:04:35.502Z,36
2023-01-07T17:06:35.556Z,40
2023-01-07T17:08:35.605Z,29
2023-01-07T17:10:35.748Z,35
2023-01-07T17:12:35.827Z,33
2023-01-07T17:14:35.891Z,39
2023-01-07T17:16:36.044Z,37
2023-01-07T17:18:36.037Z,43
2023-01-07T17:20:36.144Z,36
2023-01-07T17:22:36.210Z,38
2023-01-07T17:24:36.300Z,28
2023-01-07T17:26:40.995Z,31
2023-01-07T17:28:36.470Z,28
2023-01-07T17:30:36.586Z,24
2023-01-07T17:32:36.679Z,22
2023-01-07T17:34:36.753Z,23
2023-01-07T17:36:36.834Z,22
2023-01-07T17:38:36.962Z,22
2023-01-07T17:40:37.030Z,27
2023-01-07T17:42:37.140Z,47
2023-01-07T17:44:37.201Z,51
2023-01-07T17:46:37.304Z,52
2023-01-07T17:48:37.399Z,52
2023-01-07T17:50:37.459Z,51
2023-01-07T17:52:37.573Z,53
2023-01-07T17:54:37.648Z,65
2023-01-07T17:56:37.778Z,81
2023-01-07T17:58:37.841Z,63
2023-01-07T18:00:37.981Z,59
2023-01-07T18:02:38.043Z,61
2023-01-07T18:04:38.127Z,65
2023-01-07T18:06:38.171Z,64
2023-01-07T18:08:38.282Z,67
2023-01-07T18:10:38.349Z,79
2023-01-07T18:12:38.438Z,58
2023-01-07T18:14:38.526Z,49
2023-01-07T18:16:38.701Z,42
2023-01-07T18:18:38.722Z,45
2023-01-07T18:22:38.921Z,44
2023-01-07T18:24:39.038Z,43
2023-01-07T18:26:39.066Z,43
2023-01-07T18:28:39.177Z,52
2023-01-07T18:31:09.339Z,50
2023-01-07T18:33:09.439Z,40
2023-01-07T18:35:09.577Z,47
2023-01-07T18:37:09.671Z,60
2023-01-07T18:39:09.805Z,58
2023-01-07T18:41:09.929Z,72
2023-01-07T18:43:10.021Z,64
2023-01-07T18:45:10.236Z,57
2023-01-07T18:47:10.278Z,49
2023-01-07T18:49:10.390Z,53
2023-01-07T18:51:10.542Z,56
2023-01-07T18:53:10.656Z,61
2023-01-07T18:55:10.753Z,72
2023-01-07T18:57:10.865Z,70
2023-01-07T18:59:10.990Z,80
2023-01-07T19:01:11.278Z,72
2023-01-07T19:03:11.198Z,82
2023-01-07T19:05:11.362Z,71
2023-01-07T19:07:11.454Z,56
2023-01-07T19:09:11.572Z,48
2023-01-07T19:11:11.775Z,71
2023-01-07T19:13:11.813Z,63
2023-01-07T19:15:11.923Z,65
2023-01-07T19:17:12.018Z,63
2023-01-07T19:19:12.117Z,66
2023-01-07T19:21:12.223Z,66
2023-01-07T19:23:12.348Z,63
2023-01-07T19:25:12.467Z,59
2023-01-07T19:27:12.626Z,57
2023-01-07T19:29:14.088Z,57
2023-01-07T19:31:12.864Z,60
2023-01-07T19:33:12.868Z,60
2023-01-07T19:35:13.018Z,57
2023-01-07T19:37:13.096Z,58
2023-01-07T19:39:13.234Z,53
2023-01-07T19:41:13.329Z,55
2023-01-07T19:43:13.458Z,63
2023-01-07T19:45:13.577Z,60
2023-01-07T19:47:13.672Z,57
2023-01-07T19:49:13.792Z,57
2023-01-07T19:51:13.914Z,57
2023-01-07T19:53:14.010Z,57
2023-01-07T19:55:14.125Z,56
2023-01-07T19:57:14.241Z,59
2023-01-07T19:59:14.357Z,55
2023-01-07T20:01:14.745Z,54
2023-01-07T20:03:14.602Z,54
2023-01-07T20:05:14.686Z,54
2023-01-07T20:07:14.781Z,59
2023-01-07T20:11:15.025Z,58
2023-01-07T20:13:15.143Z,58
2023-01-07T20:15:15.270Z,57
2023-01-07T20:17:15.386Z,55
2023-01-07T20:19:15.487Z,43
2023-01-07T20:21:15.567Z,34
2023-01-07T20:23:15.695Z,34
2023-01-07T20:25:15.829Z,36
2023-01-07T20:27:15.949Z,36
2023-01-07T20:29:16.029Z,33
2023-01-07T20:31:16.320Z,31
2023-01-07T20:33:16.245Z,30
2023-01-07T20:35:16.399Z,32
2023-01-07T20:37:16.467Z,33
2023-01-07T20:39:16.605Z,36
2023-01-07T20:41:16.678Z,35
2023-01-07T20:43:16.782Z,37
2023-01-07T20:45:16.893Z,26
2023-01-07T20:47:17.064Z,18
2023-01-07T20:49:17.132Z,17
2023-01-07T20:51:17.251Z,19
2023-01-07T20:53:17.403Z,21
2023-01-07T20:55:17.461Z,38
2023-01-07T20:57:17.567Z,52
2023-01-07T20:59:17.669Z,68
2023-01-07T21:01:17.980Z,73
2023-01-07T21:03:17.943Z,85
2023-01-07T21:05:18.009Z,88
2023-01-07T21:07:18.125Z,100
2023-01-07T21:09:18.226Z,106
2023-01-07T21:11:18.338Z,105
2023-01-07T21:13:18.444Z,112
2023-01-07T21:15:18.530Z,121
2023-01-07T21:17:18.656Z,121
2023-01-07T21:19:19.248Z,120
2023-01-07T21:21:18.904Z,122
2023-01-07T21:23:18.985Z,118
2023-01-07T21:25:19.132Z,116
2023-01-07T21:27:19.219Z,111
2023-01-07T21:29:19.350Z,114
2023-01-07T21:31:19.516Z,117
2023-01-07T21:33:19.562Z,100
2023-01-07T21:35:19.737Z,85
2023-01-07T21:37:19.758Z,85
2023-01-07T21:39:19.907Z,65
2023-01-07T21:41:20.007Z,77
2023-01-07T21:43:20.120Z,72
2023-01-07T21:45:20.239Z,67
2023-01-07T21:47:20.312Z,86
2023-01-07T21:49:20.441Z,83
2023-01-07T21:51:20.668Z,84
2023-01-07T21:53:20.671Z,57
2023-01-07T21:55:20.793Z,34
2023-01-07T21:57:20.895Z,28
2023-01-07T21:59:21.029Z,26
2023-01-07T22:01:21.258Z,31
2023-01-07T22:03:21.304Z,30
2023-01-07T22:05:21.347Z,30
2023-01-07T22:07:21.428Z,30
2023-01-07T22:09:21.543Z,30
2023-01-07T22:11:21.655Z,30
2023-01-07T22:13:21.754Z,30
2023-01-07T22:15:21.867Z,31
2023-01-07T22:17:21.967Z,31
2023-01-07T22:19:22.088Z,34
2023-01-07T22:21:22.172Z,55
2023-01-07T22:23:22.292Z,54
2023-01-07T22:25:22.396Z,60
2023-01-07T22:27:22.507Z,61
2023-01-07T22:29:22.594Z,65
2023-01-07T22:31:22.820Z,72
2023-01-07T22:33:22.815Z,82
2023-01-07T22:35:22.961Z,73
2023-01-07T22:37:23.067Z,62
2023-01-07T22:39:23.275Z,52
2023-01-07T22:41:23.267Z,58
2023-01-07T22:43:23.394Z,56
2023-01-07T22:45:23.492Z,54
2023-01-07T22:47:23.597Z,59
2023-01-07T22:49:23.672Z,60
2023-01-07T22:51:23.802Z,68
2023-01-07T22:53:23.901Z,74
2023-01-07T22:55:24.004Z,81
2023-01-07T22:57:24.112Z,86
2023-01-07T22:59:24.213Z,85
2023-01-07T23:01:24.445Z,89
2023-01-07T23:03:24.467Z,87
2023-01-07T23:05:24.569Z,82
2023-01-07T23:07:24.650Z,83
2023-01-07T23:09:24.757Z,71
2023-01-07T23:11:24.862Z,69
2023-01-07T23:13:24.979Z,58
2023-01-07T23:15:25.105Z,61
2023-01-07T23:17:25.224Z,39
2023-01-07T23:19:25.295Z,41
2023-01-07T23:21:25.427Z,39
2023-01-07T23:23:25.514Z,38
2023-01-07T23:25:25.619Z,27
2023-01-07T23:27:25.821Z,28
2023-01-07T23:29:25.867Z,28
2023-01-07T23:31:26.054Z,30
2023-01-07T23:33:26.080Z,35
2023-01-07T23:35:26.188Z,33
2023-01-07T23:37:26.317Z,30
2023-01-07T23:39:26.412Z,32
2023-01-07T23:41:26.493Z,27
2023-01-07T23:43:26.589Z,29
2023-01-07T23:45:26.770Z,21
2023-01-07T23:47:26.827Z,19
2023-01-07T23:49:26.905Z,21
2023-01-07T23:51:27.022Z,21
2023-01-07T23:53:27.182Z,22
2023-01-07T23:55:27.241Z,24
2023-01-07T23:57:27.489Z,24
2023-01-07T23:59:27.476Z,23
